Terminal Aerodrome Forecast
Issued by NWS

Current Version | Previous Version | Text Only | Print | Product List | Glossary Off
Versions: 1 2 3 4 5 6 7 8 9 10 11 12 13 14 15 16 17 18 19 20 21

000
FTUS41 KRNK 291722
TAFLWB
TAF
KLWB 291722Z 2918/3018 VRB03KT P6SM BKN045
     FM300400 00000KT 2SM BR SCT050
     FM300600 00000KT 1/4SM FG OVC001
     FM301300 00000KT P6SM SCT018 BKN035
     FM301500 00000KT P6SM BKN250=

USA.gov is the U.S. government's official web portal to all federal, state and local government web resources and services.